Time;durP1;ratioP1;P1;durP2;ratioP2;P2;SDS_P1;SDS_P2;PMS_P1;PMS_P2;Temp;Humidity;BMP_temperature;BMP_pressure;BME280_temperature;BME280_humidity;BME280_pressure;Samples;Min_cycle;Max_cycle;Signal;HPM_P1;HPM_P2
2021/08/20 00:01:54;;;;;;;14.23;11.45;;;;;;;14.47;88.75;101553.88;5094785;28;19926;-36
2021/08/20 00:04:19;;;;;;;14.27;12.32;;;;;;;14.48;88.29;101560.16;5094814;28;20103;-36
2021/08/20 00:06:45;;;;;;;16.45;13.10;;;;;;;14.48;88.86;101558.28;5095077;28;20020;-36
2021/08/20 00:09:10;;;;;;;16.38;13.40;;;;;;;14.47;89.40;101559.31;5094596;28;20020;-36
2021/08/20 00:11:36;;;;;;;17.25;13.82;;;;;;;14.52;89.58;101553.19;5095118;28;20027;-36
2021/08/20 00:14:01;;;;;;;;;;;;;;;14.62;88.60;101548.78;5095649;28;20542;-36
2021/08/20 00:16:27;;;;;;;14.63;12.03;;;;;;;14.43;89.03;101539.06;5094349;28;19949;-36
2021/08/20 00:18:52;;;;;;;15.00;12.67;;;;;;;14.55;88.83;101550.00;5094356;28;20355;-36
2021/08/20 00:21:17;;;;;;;17.03;12.67;;;;;;;14.49;88.71;101532.69;5094264;28;20020;-36
2021/08/20 00:23:43;;;;;;;14.43;11.53;;;;;;;14.52;88.74;101540.41;5094160;28;20270;-36
2021/08/20 00:26:08;;;;;;;15.98;12.88;;;;;;;14.44;88.99;101540.72;5094754;28;20020;-36
2021/08/20 00:28:33;;;;;;;17.92;11.90;;;;;;;14.50;88.64;101548.00;5094280;28;20020;-36
2021/08/20 00:30:59;;;;;;;17.70;12.55;;;;;;;14.37;88.89;101537.31;5094642;28;20019;-36
2021/08/20 00:33:25;;;;;;;16.40;12.10;;;;;;;14.48;88.77;101549.28;5094055;28;20047;-36
2021/08/20 00:35:50;;;;;;;14.23;11.43;;;;;;;14.48;88.74;101547.38;5094032;28;20462;-36
2021/08/20 00:38:15;;;;;;;14.37;10.70;;;;;;;14.51;88.56;101536.03;5093583;28;20165;-36
2021/08/20 00:40:42;;;;;;;13.57;11.03;;;;;;;14.43;88.91;101541.81;5094709;28;20250;-36
2021/08/20 00:43:08;;;;;;;14.02;12.00;;;;;;;14.43;88.71;101541.81;5094150;28;20670;-36
2021/08/20 00:45:34;;;;;;;15.43;12.00;;;;;;;14.45;88.74;101536.97;5094142;28;20051;-36
2021/08/20 00:48:00;;;;;;;16.27;12.13;;;;;;;14.48;88.40;101536.50;5093908;28;20020;-36
2021/08/20 00:50:25;;;;;;;13.07;11.23;;;;;;;14.54;88.44;101540.16;5094354;28;20024;-36
2021/08/20 00:52:51;;;;;;;15.10;11.50;;;;;;;14.59;88.91;101538.38;5093457;28;20340;-36
2021/08/20 00:55:16;;;;;;;14.50;12.38;;;;;;;14.52;88.53;101529.50;5093843;28;20250;-36
2021/08/20 00:57:47;;;;;;;15.07;11.98;;;;;;;14.52;88.83;101525.97;5094564;28;20028;-36
2021/08/20 01:00:14;;;;;;;18.02;12.57;;;;;;;14.53;88.17;101531.16;5094044;28;20412;-36
2021/08/20 01:02:39;;;;;;;14.10;12.25;;;;;;;14.36;88.09;101503.84;5092321;28;20032;-36
2021/08/20 01:05:06;;;;;;;17.00;13.37;;;;;;;14.60;88.22;101523.69;5094085;28;20030;-36
2021/08/20 01:07:36;;;;;;;16.88;12.18;;;;;;;14.65;87.84;101528.44;5094123;28;20027;-36
2021/08/20 01:10:02;;;;;;;15.88;12.50;;;;;;;14.66;87.56;101528.19;5093620;28;20036;-36
2021/08/20 01:12:27;;;;;;;15.00;13.10;;;;;;;14.70;87.99;101520.34;5093247;28;20024;-36
2021/08/20 01:14:53;;;;;;;13.83;11.87;;;;;;;14.72;87.19;101520.09;5093541;28;20031;-36
2021/08/20 01:17:18;;;;;;;16.38;13.07;;;;;;;14.68;86.66;101522.47;5093494;28;20020;-36
2021/08/20 01:19:43;;;;;;;20.00;13.50;;;;;;;14.62;87.12;101521.56;5093640;28;20080;-36
2021/08/20 01:22:09;;;;;;;15.07;12.70;;;;;;;14.60;86.99;101504.66;5093605;28;20305;-36
2021/08/20 01:24:34;;;;;;;14.23;12.70;;;;;;;14.64;86.47;101502.25;5093192;28;20047;-36
2021/08/20 01:27:00;;;;;;;17.27;13.27;;;;;;;14.56;86.60;101505.38;5093253;28;20265;-36
2021/08/20 01:29:25;;;;;;;16.92;12.07;;;;;;;14.64;86.78;101514.00;5093152;28;20103;-36
2021/08/20 01:31:51;;;;;;;16.42;13.52;;;;;;;14.63;86.38;101523.19;5093823;28;20139;-36
2021/08/20 01:34:17;;;;;;;15.25;12.32;;;;;;;14.69;86.46;101521.44;5093439;28;20039;-36
2021/08/20 01:36:42;;;;;;;17.75;13.40;;;;;;;14.51;86.72;101513.44;5093978;28;20028;-36
2021/08/20 01:39:08;;;;;;;16.83;12.48;;;;;;;14.57;86.73;101526.91;5093630;28;20105;-36
2021/08/20 01:41:34;;;;;;;16.88;13.15;;;;;;;14.46;86.95;101521.47;5093202;28;20371;-36
2021/08/20 01:44:00;;;;;;;;;;;;;;;14.67;86.77;101529.81;5093651;28;20062;-36
2021/08/20 01:46:30;;;;;;;13.57;12.10;;;;;;;14.51;86.53;101522.41;5093091;28;19911;-36
2021/08/20 01:48:58;;;;;;;17.00;12.80;;;;;;;14.51;86.73;101525.16;5092551;28;20030;-36
2021/08/20 01:51:26;;;;;;;15.73;12.70;;;;;;;14.48;87.13;101522.91;5093509;28;20028;-36
2021/08/20 01:53:53;;;;;;;15.98;12.63;;;;;;;14.43;86.95;101512.69;5093731;28;20390;-36
2021/08/20 01:56:26;;;;;;;14.55;12.40;;;;;;;14.54;86.70;101531.97;5092849;28;20404;-36
2021/08/20 01:58:53;;;;;;;14.02;11.98;;;;;;;14.47;86.83;101534.00;5093475;28;20024;-36
2021/08/20 02:01:19;;;;;;;12.88;11.07;;;;;;;14.49;86.55;101524.53;5093390;28;20035;-36
2021/08/20 02:03:45;;;;;;;12.43;11.07;;;;;;;14.51;86.59;101525.16;5092585;28;20023;-36
2021/08/20 02:06:10;;;;;;;14.90;11.75;;;;;;;14.28;87.06;101509.66;5091702;28;20024;-36
2021/08/20 02:08:36;;;;;;;13.32;10.95;;;;;;;14.36;86.91;101517.47;5092828;28;20020;-36
2021/08/20 02:11:01;;;;;;;14.52;11.00;;;;;;;14.43;86.98;101536.34;5093269;28;20020;-36
2021/08/20 02:13:27;;;;;;;14.90;10.70;;;;;;;14.40;86.94;101528.69;5093527;28;20048;-36
2021/08/20 02:15:52;;;;;;;14.05;11.43;;;;;;;14.34;87.21;101532.34;5092888;28;20028;-36
2021/08/20 02:18:18;;;;;;;15.82;10.95;;;;;;;14.38;87.10;101522.66;5092804;28;20539;-36
2021/08/20 02:20:44;;;;;;;16.90;11.30;;;;;;;14.35;87.14;101529.41;5093006;28;20070;-36
2021/08/20 02:23:11;;;;;;;15.55;12.05;;;;;;;14.33;87.34;101536.97;5092716;28;20379;-36
2021/08/20 02:25:36;;;;;;;13.52;11.55;;;;;;;14.34;87.76;101530.44;5092991;28;20048;-36
2021/08/20 02:28:02;;;;;;;12.75;10.85;;;;;;;14.34;87.64;101518.75;5092994;28;20024;-36
2021/08/20 02:30:28;;;;;;;13.70;10.65;;;;;;;14.27;87.62;101515.34;5093072;28;20028;-36
2021/08/20 02:32:54;;;;;;;14.07;11.20;;;;;;;14.39;87.41;101535.19;5092717;28;20464;-36
2021/08/20 02:35:19;;;;;;;16.90;12.02;;;;;;;14.32;87.71;101537.22;5093078;28;20055;-36
2021/08/20 02:37:45;;;;;;;13.07;11.67;;;;;;;14.18;87.69;101523.84;5092516;28;20028;-35
2021/08/20 02:40:10;;;;;;;18.77;12.25;;;;;;;14.24;88.26;101530.22;5092220;28;20274;-36
2021/08/20 02:42:36;;;;;;;16.38;12.07;;;;;;;14.15;88.10;101518.91;5092701;28;20024;-36
2021/08/20 02:45:01;;;;;;;15.43;11.43;;;;;;;14.25;88.69;101533.78;5092552;28;20028;-36
2021/08/20 02:47:27;;;;;;;13.52;11.63;;;;;;;14.13;88.40;101515.59;5092524;28;20023;-36
2021/08/20 02:49:52;;;;;;;14.93;10.93;;;;;;;14.28;88.57;101528.69;5092320;28;20027;-36
2021/08/20 02:52:18;;;;;;;15.03;11.20;;;;;;;14.20;88.67;101525.50;5092394;28;20349;-36
2021/08/20 02:54:43;;;;;;;16.13;11.52;;;;;;;14.15;88.50;101524.34;5092426;28;20399;-36
2021/08/20 02:57:08;;;;;;;13.60;11.70;;;;;;;14.18;88.71;101531.19;5092408;28;20042;-36
2021/08/20 02:59:34;;;;;;;14.80;12.27;;;;;;;14.17;88.78;101526.81;5092254;28;20031;-36
2021/08/20 03:01:59;;;;;;;12.50;10.60;;;;;;;14.22;88.71;101528.84;5095777;28;20031;-36
2021/08/20 03:04:25;;;;;;;13.38;11.00;;;;;;;14.25;88.81;101531.91;5095944;28;20020;-36
2021/08/20 03:06:52;;;;;;;12.80;10.82;;;;;;;14.23;89.15;101538.66;5095724;28;20253;-36
2021/08/20 03:09:18;;;;;;;15.40;12.18;;;;;;;14.17;89.00;101519.50;5095958;28;20337;-36
2021/08/20 03:11:44;;;;;;;15.02;12.63;;;;;;;14.14;89.14;101514.53;5095493;28;20095;-36
2021/08/20 03:14:09;;;;;;;13.63;11.77;;;;;;;14.24;89.45;101529.41;5095702;28;20111;-36
2021/08/20 03:16:34;;;;;;;18.53;12.97;;;;;;;14.23;89.86;101534.03;5095952;28;20104;-36
2021/08/20 03:19:00;;;;;;;14.18;12.57;;;;;;;14.17;89.65;101533.09;5095785;28;20052;-36
2021/08/20 03:21:26;;;;;;;17.05;12.45;;;;;;;14.23;89.84;101533.22;5096217;28;20024;-36
2021/08/20 03:23:51;;;;;;;16.23;13.07;;;;;;;14.17;90.06;101508.63;5095188;28;20020;-36
2021/08/20 03:26:16;;;;;;;17.20;13.40;;;;;;;14.20;90.11;101529.09;5095186;28;20060;-36
2021/08/20 03:28:42;;;;;;;15.82;13.55;;;;;;;14.17;90.59;101513.22;5095108;28;20051;-36
2021/08/20 03:31:07;;;;;;;17.37;13.77;;;;;;;14.29;90.27;101522.19;5095064;28;20109;-35
2021/08/20 03:33:32;;;;;;;18.90;13.53;;;;;;;14.28;nan;101517.00;5095685;28;20357;-36
2021/08/20 03:35:58;;;;;;;15.50;12.38;;;;;;;14.30;90.34;101517.56;5095936;28;20024;-36
2021/08/20 03:38:23;;;;;;;17.83;13.37;;;;;;;14.25;90.65;101514.75;5095244;28;20483;-36
2021/08/20 03:40:49;;;;;;;15.03;12.20;;;;;;;14.24;90.42;101502.22;5096037;28;20375;-36
2021/08/20 03:43:15;;;;;;;15.75;13.30;;;;;;;14.18;91.05;101507.53;5095109;28;20286;-36
2021/08/20 03:45:40;;;;;;;15.23;13.57;;;;;;;14.27;91.02;101520.78;5095395;28;20031;-36
2021/08/20 03:48:05;;;;;;;15.70;12.45;;;;;;;14.21;91.21;101508.97;5095108;28;20035;-36
2021/08/20 03:50:31;;;;;;;14.98;12.68;;;;;;;14.24;91.12;101513.91;5094984;28;20040;-36
2021/08/20 03:52:56;;;;;;;17.08;12.50;;;;;;;14.29;91.33;101526.81;5095236;28;20405;-36
2021/08/20 03:55:21;;;;;;;14.60;11.93;;;;;;;14.31;91.21;101525.50;5094990;28;20038;-36
2021/08/20 03:57:49;;;;;;;17.50;13.82;;;;;;;14.27;91.59;101527.06;5094893;28;20039;-36
2021/08/20 04:00:15;;;;;;;15.90;13.00;;;;;;;14.13;91.92;101496.56;5094594;28;20103;-36
2021/08/20 04:02:40;;;;;;;16.73;12.77;;;;;;;14.28;91.94;101519.72;5094463;28;20055;-36
2021/08/20 04:05:06;;;;;;;16.20;12.97;;;;;;;14.23;91.83;101512.25;5095001;28;20032;-36
2021/08/20 04:07:31;;;;;;;15.25;13.00;;;;;;;14.21;92.44;101514.41;5094927;28;20255;-36
2021/08/20 04:09:57;;;;;;;14.87;12.33;;;;;;;14.29;92.16;101515.91;5095063;28;20447;-36
2021/08/20 04:12:22;;;;;;;17.57;13.90;;;;;;;14.31;92.72;101530.94;5093819;28;20028;-36
2021/08/20 04:14:47;;;;;;;19.03;13.53;;;;;;;14.33;92.67;101523.38;5094748;28;20258;-36
2021/08/20 04:17:13;;;;;;;19.63;13.25;;;;;;;14.27;92.62;101515.34;5094494;28;20452;-36
2021/08/20 04:19:38;;;;;;;16.63;12.97;;;;;;;14.30;92.82;101517.56;5094946;28;20111;-36
2021/08/20 04:22:04;;;;;;;19.08;12.77;;;;;;;14.33;93.16;101527.97;5092180;28;20032;-36
2021/08/20 04:24:29;;;;;;;14.40;12.32;;;;;;;14.35;93.19;101532.13;5094374;28;20020;-36
2021/08/20 04:26:54;;;;;;;18.90;12.57;;;;;;;14.28;93.42;101520.53;5094432;28;20016;-36
2021/08/20 04:29:19;;;;;;;16.00;12.05;;;;;;;14.39;93.06;101536.00;5094175;28;20361;-36
2021/08/20 04:31:45;;;;;;;13.50;11.03;;;;;;;14.37;93.12;101521.00;5094372;28;20345;-36
2021/08/20 04:34:10;;;;;;;15.97;11.67;;;;;;;14.34;93.32;101524.19;5094749;28;20290;-36
2021/08/20 04:36:37;;;;;;;17.10;11.98;;;;;;;14.41;93.08;101546.66;5095149;28;20074;-35
2021/08/20 04:39:03;;;;;;;15.90;11.43;;;;;;;14.30;92.96;101518.41;5094149;28;20433;-36
2021/08/20 04:41:29;;;;;;;16.20;12.38;;;;;;;14.43;93.56;101539.06;5094185;28;20089;-36
2021/08/20 04:43:54;;;;;;;13.52;12.07;;;;;;;14.43;94.03;101544.53;5094008;28;20452;-36
2021/08/20 04:46:19;;;;;;;14.45;11.55;;;;;;;14.46;94.01;101544.06;5094029;28;20130;-36
2021/08/20 04:48:45;;;;;;;15.70;11.33;;;;;;;14.47;93.90;101550.31;5093835;28;20032;-36
2021/08/20 04:51:11;;;;;;;17.47;12.03;;;;;;;14.49;93.67;101549.03;5094199;28;20269;-36
2021/08/20 04:53:36;;;;;;;16.08;11.98;;;;;;;14.48;93.89;101552.81;5093920;28;20543;-36
2021/08/20 04:56:02;;;;;;;12.85;10.13;;;;;;;14.56;93.44;101552.47;5093854;28;20020;-36
2021/08/20 04:58:27;;;;;;;13.83;11.60;;;;;;;14.51;93.40;101543.38;5093843;28;20069;-36
2021/08/20 05:00:53;;;;;;;14.43;11.45;;;;;;;14.60;93.38;101555.53;5093491;28;20054;-36
2021/08/20 05:03:20;;;;;;;20.02;12.00;;;;;;;14.62;93.68;101562.38;5094151;28;20032;-36
2021/08/20 05:05:46;;;;;;;15.93;10.65;;;;;;;14.65;93.46;101563.81;5094152;28;20020;-36
2021/08/20 05:08:11;;;;;;;16.73;12.65;;;;;;;14.68;93.66;101563.31;5093619;28;20027;-36
2021/08/20 05:10:38;;;;;;;15.00;11.52;;;;;;;14.68;93.45;101561.41;5094099;28;20024;-36
2021/08/20 05:13:03;;;;;;;16.77;11.18;;;;;;;14.59;93.91;101545.69;5093865;28;20440;-36
2021/08/20 05:15:28;;;;;;;14.37;11.47;;;;;;;14.67;93.74;101567.09;5093716;28;20094;-36
2021/08/20 05:17:54;;;;;;;13.45;11.15;;;;;;;14.69;93.70;101562.25;5093608;28;20277;-36
2021/08/20 05:20:20;;;;;;;13.85;11.27;;;;;;;14.68;93.95;101555.97;5094145;28;20459;-36
2021/08/20 05:22:51;;;;;;;16.48;11.20;;;;;;;14.60;94.02;101537.31;5093349;28;20459;-36
2021/08/20 05:25:17;;;;;;;14.00;10.93;;;;;;;14.76;94.03;101560.22;5092272;28;20040;-36
2021/08/20 05:27:43;;;;;;;;;;;;;;;14.86;93.02;101562.31;5093699;28;20024;-36
2021/08/20 05:30:09;;;;;;;14.07;10.18;;;;;;;14.75;93.89;101550.41;5093571;28;19908;-36
2021/08/20 05:32:35;;;;;;;17.38;11.10;;;;;;;14.77;93.72;101552.88;5093771;28;20034;-36
2021/08/20 05:35:02;;;;;;;14.07;10.75;;;;;;;14.86;94.40;101570.50;5093515;28;20040;-36
2021/08/20 05:37:28;;;;;;;16.30;11.70;;;;;;;14.85;94.26;101566.13;5093763;28;20028;-35
2021/08/20 05:39:53;;;;;;;13.27;10.75;;;;;;;14.90;94.15;101577.13;5093380;28;20039;-35
2021/08/20 05:42:19;;;;;;;13.48;10.98;;;;;;;14.90;93.78;101577.13;5092939;28;20065;-35
2021/08/20 05:44:44;;;;;;;16.37;11.97;;;;;;;14.95;93.96;101579.94;5092806;28;20517;-35
2021/08/20 05:47:09;;;;;;;14.57;11.93;;;;;;;14.97;94.58;101580.50;5093280;28;20028;-35
2021/08/20 05:49:34;;;;;;;13.57;10.95;;;;;;;14.99;94.66;101589.28;5093005;28;20062;-35
2021/08/20 05:52:00;;;;;;;15.07;11.07;;;;;;;15.00;94.33;101590.94;5093034;28;20038;-35
2021/08/20 05:54:25;;;;;;;14.60;11.53;;;;;;;15.04;94.17;101583.94;5092990;28;20288;-35
2021/08/20 05:56:51;;;;;;;13.77;11.30;;;;;;;15.09;93.98;101592.19;5092914;28;20375;-35
2021/08/20 05:59:17;;;;;;;14.60;11.57;;;;;;;15.10;94.58;101601.19;5092880;28;20806;-35
2021/08/20 06:01:42;;;;;;;13.18;11.25;;;;;;;15.15;94.21;101601.28;5093191;28;20103;-35
2021/08/20 06:04:08;;;;;;;14.73;10.55;;;;;;;15.23;94.21;101598.19;5092648;28;20087;-35
2021/08/20 06:06:36;;;;;;;14.17;11.30;;;;;;;15.20;94.36;101594.03;5093036;28;20157;-35
2021/08/20 06:09:02;;;;;;;17.00;11.82;;;;;;;15.31;94.27;101599.69;5092948;28;20266;-35
2021/08/20 06:11:27;;;;;;;15.20;11.97;;;;;;;15.36;93.51;101602.50;5093088;28;20035;-35
2021/08/20 06:13:54;;;;;;;17.27;12.82;;;;;;;15.39;93.30;101615.66;5092927;28;20262;-35
2021/08/20 06:16:19;;;;;;;16.23;12.43;;;;;;;15.42;93.16;101609.69;5093384;28;20099;-35
2021/08/20 06:18:45;;;;;;;15.98;12.45;;;;;;;15.32;93.44;101595.88;5092498;28;20016;-35
2021/08/20 06:21:10;;;;;;;16.63;12.87;;;;;;;15.47;93.71;101604.34;5092519;28;20040;-35
2021/08/20 06:23:36;;;;;;;15.07;11.83;;;;;;;15.45;93.72;101587.41;5092506;28;20319;-35
2021/08/20 06:26:01;;;;;;;14.65;12.25;;;;;;;15.55;93.88;101606.66;5092478;28;20020;-35
2021/08/20 06:28:26;;;;;;;15.45;12.98;;;;;;;15.61;93.81;101613.03;5092354;28;20063;-35
2021/08/20 06:30:52;;;;;;;15.07;12.77;;;;;;;15.63;93.62;101609.03;5093373;28;20031;-35
2021/08/20 06:33:17;;;;;;;;;;;;;;;15.74;93.26;101614.66;5092685;28;20016;-35
2021/08/20 06:35:43;;;;;;;14.70;12.10;;;;;;;15.72;93.26;101609.47;5094029;28;19911;-35
2021/08/20 06:38:09;;;;;;;14.13;12.57;;;;;;;15.75;93.51;101605.41;5096744;28;20274;-35
2021/08/20 06:40:34;;;;;;;15.30;12.25;;;;;;;15.67;93.81;101599.28;5096624;28;20115;-35
2021/08/20 06:42:59;;;;;;;14.82;11.38;;;;;;;15.81;94.12;101605.25;5096316;28;20024;-35
2021/08/20 06:45:25;;;;;;;14.83;12.00;;;;;;;15.85;93.75;101613.75;5096286;28;20444;-35
2021/08/20 06:47:50;;;;;;;14.80;12.40;;;;;;;15.84;94.06;101601.19;5096232;28;20677;-35
2021/08/20 06:50:15;;;;;;;18.07;13.47;;;;;;;15.89;94.01;101607.53;5096174;28;20028;-35
2021/08/20 06:52:41;;;;;;;14.75;11.75;;;;;;;16.00;94.50;101618.63;5096230;28;20270;-35
2021/08/20 06:55:07;;;;;;;18.35;12.55;;;;;;;15.92;94.46;101607.06;5095103;28;20509;-35
2021/08/20 06:57:32;;;;;;;;;;;;;;;16.12;93.40;101625.66;5097262;28;20391;-35
2021/08/20 06:59:57;;;;;;;15.77;13.15;;;;;;;16.04;94.15;101612.41;5096027;28;19908;-35
2021/08/20 07:02:23;;;;;;;;;;;;;;;16.18;93.46;101629.28;5096324;28;20100;-35
2021/08/20 07:04:49;;;;;;;14.63;12.53;;;;;;;16.19;93.94;101623.56;5095794;28;19904;-35
2021/08/20 07:07:15;;;;;;;16.63;13.48;;;;;;;16.21;94.20;101626.06;5096579;28;20345;-35
2021/08/20 07:09:40;;;;;;;15.50;13.15;;;;;;;16.20;93.61;101616.22;5095691;28;20112;-35
2021/08/20 07:12:06;;;;;;;16.30;13.27;;;;;;;16.26;93.84;101622.59;5095757;28;20020;-35
2021/08/20 07:14:31;;;;;;;17.08;14.32;;;;;;;16.31;93.58;101620.75;5095918;28;20251;-35
2021/08/20 07:16:56;;;;;;;;;;;;;;;16.42;93.38;101627.19;5096406;28;20452;-35
2021/08/20 07:19:23;;;;;;;19.80;14.87;;;;;;;16.41;92.59;101620.09;5095549;28;20366;-35
2021/08/20 07:21:48;;;;;;;17.83;14.40;;;;;;;16.49;92.82;101622.38;5095429;28;20238;-35
2021/08/20 07:24:13;;;;;;;16.77;13.80;;;;;;;16.59;92.52;101629.88;5095272;28;20035;-35
2021/08/20 07:26:39;;;;;;;20.25;14.98;;;;;;;16.67;91.99;101624.81;5096320;28;20024;-36
2021/08/20 07:29:04;;;;;;;;;;;;;;;16.80;92.30;101626.38;5095851;28;20437;-35
2021/08/20 07:31:30;;;;;;;21.20;14.70;;;;;;;16.80;91.95;101631.03;5095590;28;20262;-35
2021/08/20 07:33:55;;;;;;;19.10;14.68;;;;;;;16.75;90.89;101617.31;5095894;28;20376;-36
2021/08/20 07:36:20;;;;;;;;;;;;;;;16.91;91.25;101622.69;5095511;28;20102;-35
2021/08/20 07:38:46;;;;;;;20.15;15.50;;;;;;;16.91;91.25;101630.88;5095494;28;19908;-35
2021/08/20 07:41:11;;;;;;;21.45;15.75;;;;;;;16.96;90.73;101630.94;5095502;28;20028;-35
2021/08/20 07:43:36;;;;;;;21.88;16.38;;;;;;;16.90;90.59;101606.56;5095348;28;20024;-35
2021/08/20 07:46:02;;;;;;;;;;;;;;;17.12;90.75;101626.50;5096425;28;20043;-35
2021/08/20 07:48:27;;;;;;;19.60;15.10;;;;;;;17.12;90.04;101621.03;5093735;28;19912;-35
2021/08/20 07:50:52;;;;;;;19.67;16.63;;;;;;;17.16;90.66;101626.81;5095446;28;20270;-35
2021/08/20 07:53:18;;;;;;;;;;;;;;;17.30;90.31;101632.72;5095643;28;20050;-35
2021/08/20 07:55:43;;;;;;;20.98;16.60;;;;;;;17.29;90.39;101625.59;5095309;28;19904;-35
2021/08/20 07:58:09;;;;;;;18.33;15.88;;;;;;;17.27;90.47;101625.00;5094981;28;20063;-35
2021/08/20 08:00:35;;;;;;;;;;;;;;;17.38;90.31;101635.81;5094784;28;20032;-35
2021/08/20 08:03:00;;;;;;;20.63;17.17;;;;;;;17.30;89.51;101638.19;5095353;28;20327;-35
2021/08/20 08:05:26;;;;;;;18.95;16.95;;;;;;;17.34;89.64;101633.84;5095186;28;20027;-35
2021/08/20 08:07:53;;;;;;;;;;;;;;;17.47;89.97;101633.41;5095736;28;20130;-35
2021/08/20 08:10:18;;;;;;;18.27;16.40;;;;;;;17.51;89.52;101631.81;5095062;28;19908;-35
2021/08/20 08:12:44;;;;;;;;;;;;;;;17.68;89.52;101634.47;5095352;28;20049;-35
2021/08/20 08:15:10;;;;;;;19.20;17.20;;;;;;;17.72;89.31;101639.16;5095541;28;19904;-36
2021/08/20 08:17:36;;;;;;;20.38;18.27;;;;;;;17.83;89.05;101634.63;5094942;28;20032;-35
2021/08/20 08:20:04;;;;;;;19.45;17.33;;;;;;;17.77;88.46;101626.66;5094497;28;20032;-35
2021/08/20 08:22:30;;;;;;;19.42;17.42;;;;;;;17.89;87.44;101641.78;5094716;28;20104;-35
2021/08/20 08:24:55;;;;;;;;;;;;;;;18.05;88.24;101644.66;5095393;28;20070;-35
2021/08/20 08:27:20;;;;;;;21.48;18.13;;;;;;;18.00;87.50;101634.50;5094942;28;19915;-36
2021/08/20 08:29:46;;;;;;;;;;;;;;;18.15;87.60;101636.50;5095042;28;20055;-36
2021/08/20 08:32:11;;;;;;;18.10;16.15;;;;;;;18.04;86.44;101627.41;5094546;28;20006;-35
2021/08/20 08:34:38;;;;;;;;;;;;;;;18.26;87.51;101643.75;5094688;28;20464;-35
2021/08/20 08:37:03;;;;;;;19.13;16.83;;;;;;;18.15;85.71;101642.81;5093044;28;20002;-35
2021/08/20 08:39:28;;;;;;;;;;;;;;;18.34;86.75;101647.88;5094853;28;20169;-36
2021/08/20 08:41:54;;;;;;;19.00;16.83;;;;;;;18.25;85.78;101629.22;5094461;28;20363;-35
2021/08/20 08:44:19;;;;;;;;;;;;;;;18.50;86.07;101649.66;5094398;28;20051;-36
2021/08/20 08:46:46;;;;;;;21.05;18.02;;;;;;;18.44;84.35;101646.03;5094289;28;20004;-35
2021/08/20 08:49:13;;;;;;;20.85;18.30;;;;;;;18.47;84.91;101644.69;5094178;28;20028;-35
2021/08/20 08:51:39;;;;;;;20.25;18.15;;;;;;;18.46;85.21;101637.56;5094209;28;20035;-35
2021/08/20 08:54:04;;;;;;;;;;;;;;;18.71;85.63;101647.88;5094876;28;20016;-35
2021/08/20 08:56:29;;;;;;;20.23;17.85;;;;;;;18.68;82.98;101649.22;5094458;28;19911;-35
2021/08/20 08:58:54;;;;;;;;;;;;;;;18.87;85.32;101646.03;5093902;28;20069;-35
2021/08/20 09:01:27;;;;;;;21.33;18.20;;;;;;;18.84;83.61;101633.69;5094091;28;19912;-35
2021/08/20 09:04:15;;;;;;;24.67;21.20;;;;;;;18.95;83.19;101642.78;5094090;28;20028;-35
2021/08/20 09:06:46;;;;;;;23.58;21.10;;;;;;;18.85;81.92;101629.03;5094157;28;20043;-35
2021/08/20 09:09:20;;;;;;;22.92;20.52;;;;;;;19.01;80.71;101647.19;5094143;28;20028;-35
2021/08/20 09:11:53;;;;;;;21.88;19.67;;;;;;;19.26;80.25;101643.72;5093769;28;20027;-35
2021/08/20 09:14:18;;;;;;;22.20;19.73;;;;;;;19.40;79.77;101641.28;5092542;28;20016;-36
2021/08/20 09:16:44;;;;;;;;;;;;;;;19.69;81.83;101649.88;5094468;28;20077;-35
2021/08/20 09:19:17;;;;;;;21.13;18.92;;;;;;;19.59;77.49;101636.13;5093664;28;19912;-35
2021/08/20 09:21:46;;;;;;;21.98;19.77;;;;;;;19.50;77.72;101639.38;5093684;28;20077;-35
2021/08/20 09:24:40;;;;;;;21.88;19.63;;;;;;;19.46;79.13;101642.94;5093673;28;20459;-35
2021/08/20 09:27:15;;;;;;;20.92;18.83;;;;;;;19.42;79.08;101642.69;5093707;28;20023;-35
2021/08/20 09:30:04;;;;;;;20.30;18.25;;;;;;;19.55;78.89;101630.34;5093155;28;20016;-35
2021/08/20 09:32:30;;;;;;;21.13;18.90;;;;;;;19.75;77.02;101629.56;5094314;28;20020;-35
2021/08/20 09:34:59;;;;;;;;;;;;;;;20.11;79.56;101638.63;5094038;28;20040;-36
2021/08/20 09:37:30;;;;;;;20.55;18.40;;;;;;;20.21;77.30;101640.56;5093590;28;19909;-35
2021/08/20 09:40:00;;;;;;;17.40;15.60;;;;;;;20.15;73.49;101642.47;5093692;28;20471;-35
2021/08/20 09:42:25;;;;;;;17.48;15.88;;;;;;;20.02;73.29;101634.81;5093767;28;20024;-36
2021/08/20 09:45:10;;;;;;;;;;;;;;;20.21;76.29;101643.31;5093515;28;20448;-36
2021/08/20 09:47:41;;;;;;;16.25;14.65;;;;;;;20.00;74.96;101643.28;5093593;28;19908;-36
2021/08/20 09:50:06;;;;;;;16.65;15.05;;;;;;;19.98;74.86;101644.69;5093848;28;20160;-35
2021/08/20 09:52:31;;;;;;;;;;;;;;;20.08;76.67;101650.16;5093846;28;20095;-36
2021/08/20 09:54:57;;;;;;;15.80;14.30;;;;;;;19.80;74.62;101646.84;5093131;28;19966;-36
2021/08/20 09:57:26;;;;;;;18.33;16.20;;;;;;;19.68;75.05;101654.53;5093435;28;20066;-36
2021/08/20 09:59:57;;;;;;;17.38;15.77;;;;;;;19.54;75.49;101650.66;5093084;28;20107;-35
2021/08/20 10:02:29;;;;;;;16.58;14.90;;;;;;;19.49;76.17;101658.88;5093965;28;20106;-35
2021/08/20 10:04:56;;;;;;;15.50;14.10;;;;;;;19.45;75.84;101661.31;5093137;28;20020;-35
2021/08/20 10:07:24;;;;;;;16.75;15.05;;;;;;;19.37;76.16;101656.34;5092926;28;20035;-36
2021/08/20 10:09:55;;;;;;;16.20;14.80;;;;;;;19.54;75.99;101667.09;5093447;28;20024;-36
2021/08/20 10:12:24;;;;;;;15.70;14.20;;;;;;;19.74;74.30;101658.09;5096956;28;20024;-35
2021/08/20 10:14:51;;;;;;;18.10;16.38;;;;;;;20.08;74.25;101661.16;5097392;28;20020;-36
2021/08/20 10:17:17;;;;;;;17.65;15.85;;;;;;;20.43;73.89;101654.78;5097986;28;20020;-36
2021/08/20 10:19:48;;;;;;;;;;;;;;;20.68;75.58;101664.94;5097542;28;20090;-35
2021/08/20 10:22:14;;;;;;;17.42;15.82;;;;;;;20.44;72.49;101670.16;5096985;28;19904;-34
2021/08/20 10:24:39;;;;;;;;;;;;;;;20.48;74.70;101662.22;5097376;28;20024;-35
2021/08/20 10:27:06;;;;;;;19.20;17.50;;;;;;;20.10;73.59;101661.69;5097500;28;20003;-35
2021/08/20 10:29:35;;;;;;;21.75;19.45;;;;;;;19.99;74.25;101676.50;5097108;28;20024;-36
2021/08/20 10:32:08;;;;;;;20.65;18.67;;;;;;;19.90;74.32;101661.69;5097435;28;20020;-36
2021/08/20 10:34:39;;;;;;;19.95;18.02;;;;;;;19.90;74.99;101667.16;5096625;28;20048;-35
2021/08/20 10:37:22;;;;;;;19.73;17.77;;;;;;;19.94;75.15;101662.78;5097078;28;20028;-36
2021/08/20 10:39:50;;;;;;;20.30;18.30;;;;;;;19.95;73.31;101667.16;5097303;28;20024;-36
2021/08/20 10:42:16;;;;;;;18.08;16.40;;;;;;;20.02;74.55;101667.75;5096892;28;20024;-35
2021/08/20 10:44:42;;;;;;;19.98;18.08;;;;;;;20.07;73.63;101673.22;5096485;28;20464;-36
2021/08/20 10:47:08;;;;;;;;;;;;;;;20.25;75.13;101667.19;5097005;28;20042;-36
2021/08/20 10:49:41;;;;;;;20.63;18.50;;;;;;;20.23;73.78;101665.81;5096351;28;19912;-36
2021/08/20 10:52:07;;;;;;;20.27;18.40;;;;;;;20.43;74.07;101662.22;5096640;28;20027;-36
2021/08/20 10:54:33;;;;;;;;;;;;;;;20.66;74.93;101656.16;5096538;28;20364;-36
2021/08/20 10:57:02;;;;;;;15.57;14.15;;;;;;;20.76;72.99;101642.38;5097168;28;19943;-36
2021/08/20 10:59:37;;;;;;;15.13;13.63;;;;;;;21.11;72.13;101657.09;5096654;28;20419;-36
2021/08/20 11:02:18;;;;;;;13.30;12.02;;;;;;;21.39;72.45;101660.28;5096432;28;20032;-36
2021/08/20 11:05:02;;;;;;;10.52;9.52;;;;;;;21.79;72.17;101656.44;5095832;28;20050;-36
2021/08/20 11:07:36;;;;;;;10.60;9.52;;;;;;;22.09;68.93;101663.63;5096198;28;20020;-36
2021/08/20 11:10:24;;;;;;;10.25;9.25;;;;;;;22.05;68.90;101662.56;5095483;28;20016;-36
2021/08/20 11:12:56;;;;;;;10.90;8.45;;;;;;;21.74;68.52;101662.78;5085923;28;20137;-36
2021/08/20 11:15:22;;;;;;;9.32;8.52;;;;;;;21.69;67.93;101668.34;5095640;28;20421;-36